createdAt,value
2019-04-14T00:01:30.449Z,11.85
2019-04-14T00:04:40.037Z,8.28
2019-04-14T00:07:36.208Z,10.10
2019-04-14T00:10:40.620Z,9.25
2019-04-14T00:13:34.865Z,9.83
2019-04-14T00:22:55.529Z,19.67
2019-04-14T00:25:52.225Z,10.35
2019-04-14T00:28:44.726Z,17.95
2019-04-14T00:31:35.049Z,15.70
2019-04-14T00:34:39.894Z,16.87
2019-04-14T00:37:46.658Z,15.55
2019-04-14T00:40:56.188Z,13.08
2019-04-14T00:44:12.370Z,15.00
2019-04-14T00:47:18.027Z,7.60
2019-04-14T00:50:25.360Z,13.55
2019-04-14T00:53:18.523Z,13.50
2019-04-14T00:56:14.800Z,7.35
2019-04-14T00:59:09.249Z,9.58
2019-04-14T01:02:09.886Z,16.45
2019-04-14T01:08:11.990Z,7.97
2019-04-14T01:11:03.046Z,5.67
2019-04-14T01:13:57.161Z,6.28
2019-04-14T01:17:05.261Z,5.92
2019-04-14T01:19:56.959Z,5.42
2019-04-14T01:22:53.101Z,7.70
2019-04-14T01:28:56.803Z,11.38
2019-04-14T01:31:49.760Z,8.00
2019-04-14T01:34:43.390Z,8.90
2019-04-14T01:37:48.648Z,9.55
2019-04-14T01:40:44.553Z,10.88
2019-04-14T01:43:38.576Z,14.45
2019-04-14T01:46:34.278Z,9.13
2019-04-14T01:49:37.615Z,9.63
2019-04-14T01:52:56.812Z,13.60
2019-04-14T01:56:14.458Z,16.35
2019-04-14T01:59:08.908Z,9.68
2019-04-14T02:02:03.008Z,8.65
2019-04-14T02:04:52.896Z,8.28
2019-04-14T02:07:47.190Z,9.68
2019-04-14T02:10:41.172Z,11.40
2019-04-14T02:13:42.011Z,11.03
2019-04-14T02:16:52.189Z,16.12
2019-04-14T02:19:37.061Z,11.65
2019-04-14T02:22:31.275Z,8.93
2019-04-14T02:29:01.430Z,11.18
2019-04-14T02:32:32.561Z,14.75
2019-04-14T02:35:22.693Z,11.25
2019-04-14T02:38:23.568Z,15.35
2019-04-14T02:41:27.332Z,11.08
2019-04-14T02:46:59.554Z,15.03
2019-04-14T02:49:51.072Z,12.85
2019-04-14T02:53:01.780Z,15.80
2019-04-14T02:56:08.243Z,13.80
2019-04-14T02:58:55.179Z,23.22
2019-04-14T03:04:45.599Z,18.12
2019-04-14T03:07:46.795Z,8.45
2019-04-14T03:16:43.539Z,12.55
2019-04-14T03:19:41.544Z,9.75
2019-04-14T03:23:06.768Z,11.00
2019-04-14T03:25:41.464Z,12.37
2019-04-14T03:28:46.037Z,20.52
2019-04-14T03:31:59.679Z,25.45
2019-04-14T03:34:51.979Z,8.70
2019-04-14T03:43:31.702Z,10.95
2019-04-14T03:58:35.788Z,9.30
2019-04-14T04:01:32.336Z,10.60
2019-04-14T04:04:20.977Z,11.28
2019-04-14T04:07:17.095Z,11.57
2019-04-14T04:10:13.606Z,11.08
2019-04-14T04:13:08.854Z,10.63
2019-04-14T04:16:03.181Z,18.77
2019-04-14T04:19:04.089Z,9.18
2019-04-14T04:22:15.659Z,18.65
2019-04-14T04:25:39.964Z,8.60
2019-04-14T04:28:45.084Z,11.22
2019-04-14T04:31:50.442Z,21.10
2019-04-14T04:35:06.451Z,10.70
2019-04-14T04:38:27.182Z,12.35
2019-04-14T04:41:21.013Z,12.43
2019-04-14T04:44:13.819Z,26.97
2019-04-14T04:47:07.750Z,24.27
2019-04-14T04:50:00.426Z,16.10
2019-04-14T04:52:54.271Z,12.85
2019-04-14T04:55:59.341Z,26.20
2019-04-14T04:58:52.923Z,22.80
2019-04-14T05:01:47.341Z,14.68
2019-04-14T05:04:43.843Z,16.27
2019-04-14T05:10:59.436Z,12.95
2019-04-14T05:13:55.396Z,15.25
2019-04-14T05:16:49.133Z,12.33
2019-04-14T05:19:43.599Z,11.90
2019-04-14T05:22:37.579Z,11.93
2019-04-14T05:25:31.749Z,10.35
2019-04-14T05:28:24.685Z,17.98
2019-04-14T05:31:33.604Z,19.10
2019-04-14T05:34:28.282Z,12.25
2019-04-14T05:37:35.676Z,9.53
2019-04-14T05:40:30.008Z,11.75
2019-04-14T05:43:30.466Z,15.98
2019-04-14T05:46:16.348Z,15.35
2019-04-14T05:49:09.354Z,14.98
2019-04-14T05:51:59.170Z,15.53
2019-04-14T05:54:53.561Z,12.55
2019-04-14T05:57:48.025Z,13.22
2019-04-14T06:00:51.383Z,20.27
2019-04-14T06:04:00.373Z,16.87
2019-04-14T06:06:53.036Z,12.68
2019-04-14T06:09:47.441Z,15.65
2019-04-14T06:12:48.878Z,14.80
2019-04-14T06:15:41.937Z,15.85
2019-04-14T06:18:47.626Z,28.32
2019-04-14T06:21:53.771Z,27.02
2019-04-14T06:24:47.467Z,16.37
2019-04-14T06:27:38.737Z,24.63
2019-04-14T06:30:46.135Z,17.17
2019-04-14T06:33:50.717Z,16.48
2019-04-14T06:40:12.140Z,19.85
2019-04-14T06:43:18.480Z,14.28
2019-04-14T06:46:13.356Z,24.07
2019-04-14T06:49:07.569Z,18.40
2019-04-14T06:52:01.520Z,20.45
2019-04-14T06:54:56.640Z,17.82
2019-04-14T06:57:50.704Z,19.23
2019-04-14T07:01:10.141Z,28.10
2019-04-14T07:04:16.238Z,19.30
2019-04-14T07:07:11.901Z,21.42
2019-04-14T07:13:20.763Z,26.30
2019-04-14T07:16:15.341Z,29.57
2019-04-14T07:22:14.255Z,30.70
2019-04-14T07:25:08.080Z,23.07
2019-04-14T07:28:02.942Z,26.57
2019-04-14T07:37:54.303Z,23.12
2019-04-14T07:40:58.541Z,23.10
2019-04-14T07:44:14.841Z,27.42
2019-04-14T07:47:16.722Z,21.70
2019-04-14T07:50:30.260Z,23.00
2019-04-14T07:53:34.063Z,31.60
2019-04-14T07:59:57.038Z,28.02
2019-04-14T08:03:08.425Z,19.23
2019-04-14T08:09:05.644Z,17.12
2019-04-14T08:11:59.725Z,31.45
2019-04-14T08:15:06.862Z,25.45
2019-04-14T08:18:00.693Z,19.60
2019-04-14T08:20:50.027Z,26.30
2019-04-14T08:23:43.214Z,27.17
2019-04-14T08:26:36.780Z,22.62
2019-04-14T08:29:32.652Z,17.70
2019-04-14T08:32:26.733Z,33.08
2019-04-14T08:35:21.329Z,20.45
2019-04-14T08:38:10.865Z,26.15
2019-04-14T08:41:16.926Z,21.42
2019-04-14T08:51:24.148Z,21.93
2019-04-14T08:54:33.836Z,16.67
2019-04-14T08:57:57.357Z,14.93
2019-04-14T09:01:02.701Z,18.15
2019-04-14T09:04:18.159Z,18.32
2019-04-14T09:07:19.531Z,15.58
2019-04-14T09:10:27.033Z,16.05
2019-04-14T09:13:21.203Z,13.05
2019-04-14T09:16:08.941Z,16.23
2019-04-14T09:19:07.850Z,20.08
2019-04-14T09:22:07.607Z,13.28
2019-04-14T09:25:00.919Z,18.50
2019-04-14T09:27:53.724Z,14.90
2019-04-14T09:30:43.181Z,13.50
2019-04-14T09:33:37.777Z,13.90
2019-04-14T09:36:32.661Z,13.03
2019-04-14T09:42:45.116Z,13.95
2019-04-14T09:45:38.923Z,15.20
2019-04-14T09:48:45.551Z,18.42
2019-04-14T09:51:35.285Z,14.93
2019-04-14T10:01:09.017Z,16.25
2019-04-14T10:03:59.724Z,12.40
2019-04-14T10:06:53.055Z,13.90
2019-04-14T10:09:47.150Z,19.40
2019-04-14T10:12:41.202Z,12.65
2019-04-14T10:15:37.593Z,15.13
2019-04-14T10:18:26.995Z,15.35
2019-04-14T10:21:21.651Z,12.05
2019-04-14T10:24:21.713Z,11.18
2019-04-14T10:27:21.580Z,13.75
2019-04-14T10:30:15.001Z,11.08
2019-04-14T10:33:09.741Z,9.05
2019-04-14T10:36:03.824Z,11.05
2019-04-14T10:38:57.649Z,10.90
2019-04-14T10:41:51.225Z,11.38
2019-04-14T10:44:57.580Z,13.00
2019-04-14T10:47:51.158Z,9.13
2019-04-14T10:50:47.278Z,13.00
2019-04-14T10:53:41.612Z,14.10
2019-04-14T10:56:51.310Z,13.20
2019-04-14T10:59:45.149Z,8.83
2019-04-14T11:02:52.322Z,11.12
2019-04-14T11:05:55.569Z,10.88
2019-04-14T11:09:01.676Z,15.93
2019-04-14T11:11:55.260Z,13.32
2019-04-14T11:14:48.300Z,10.93
2019-04-14T11:17:42.381Z,18.70
2019-04-14T11:20:49.771Z,14.53
2019-04-14T11:23:43.853Z,14.18
2019-04-14T11:26:39.919Z,13.08
2019-04-14T11:29:57.612Z,12.25
2019-04-14T11:32:54.762Z,11.33
2019-04-14T11:35:59.088Z,10.28
2019-04-14T11:38:59.816Z,8.48
2019-04-14T11:45:04.371Z,13.28
2019-04-14T11:47:59.214Z,14.00
2019-04-14T11:50:52.800Z,13.72
2019-04-14T11:53:46.610Z,14.15
2019-04-14T11:56:41.195Z,12.95
2019-04-14T11:59:37.137Z,14.60
2019-04-14T12:06:17.057Z,9.90
2019-04-14T12:12:44.780Z,10.70
2019-04-14T12:15:39.116Z,11.60
2019-04-14T12:18:28.842Z,20.17
2019-04-14T12:21:23.436Z,18.17
2019-04-14T12:24:16.501Z,22.42
2019-04-14T12:27:12.877Z,12.95
2019-04-14T12:30:07.213Z,17.52
2019-04-14T12:33:02.211Z,16.45
2019-04-14T12:35:56.034Z,17.12
2019-04-14T12:38:56.636Z,21.17
2019-04-14T12:42:09.396Z,13.08
2019-04-14T12:45:26.263Z,20.27
2019-04-14T12:48:39.835Z,16.73
2019-04-14T12:51:47.973Z,22.07
2019-04-14T12:54:41.260Z,17.40
2019-04-14T12:57:40.716Z,19.37
2019-04-14T13:00:36.853Z,14.20
2019-04-14T13:03:32.723Z,24.12
2019-04-14T13:09:41.869Z,15.80
2019-04-14T13:12:35.704Z,19.95
2019-04-14T13:15:29.776Z,18.42
2019-04-14T13:18:23.614Z,17.80
2019-04-14T13:21:26.385Z,18.32
2019-04-14T13:24:32.255Z,20.30
2019-04-14T13:27:26.586Z,25.50
2019-04-14T13:30:20.141Z,18.45
2019-04-14T13:33:09.871Z,18.55
2019-04-14T13:36:03.692Z,20.43
2019-04-14T13:39:21.344Z,18.92
2019-04-14T13:42:15.662Z,16.42
2019-04-14T13:45:22.017Z,19.80
2019-04-14T13:48:22.257Z,15.83
2019-04-14T13:51:27.351Z,15.65
2019-04-14T13:54:15.371Z,17.73
2019-04-14T13:57:09.178Z,20.85
2019-04-14T14:00:03.121Z,19.52
2019-04-14T14:02:55.978Z,18.80
2019-04-14T14:09:21.516Z,23.65
2019-04-14T14:12:28.142Z,16.97
2019-04-14T14:18:40.112Z,16.70
2019-04-14T14:21:44.463Z,20.90
2019-04-14T14:24:43.587Z,20.55
2019-04-14T14:27:38.886Z,17.82
2019-04-14T14:30:34.347Z,15.83
2019-04-14T14:33:28.762Z,14.40
2019-04-14T14:36:22.840Z,18.32
2019-04-14T14:39:18.634Z,19.40
2019-04-14T14:45:37.276Z,16.57
2019-04-14T14:48:49.768Z,15.05
2019-04-14T14:52:09.710Z,21.65
2019-04-14T14:55:14.796Z,23.98
2019-04-14T14:58:08.875Z,13.03
2019-04-14T15:01:15.832Z,22.58
2019-04-14T15:04:09.835Z,17.15
2019-04-14T15:07:09.553Z,16.37
2019-04-14T15:10:14.381Z,21.45
2019-04-14T15:13:10.251Z,20.92
2019-04-14T15:16:16.632Z,22.10
2019-04-14T15:19:09.675Z,18.23
2019-04-14T15:22:16.558Z,23.25
2019-04-14T15:25:09.610Z,24.98
2019-04-14T15:31:13.904Z,21.35
2019-04-14T15:34:10.746Z,22.48
2019-04-14T15:37:04.628Z,16.85
2019-04-14T15:39:58.196Z,22.70
2019-04-14T15:42:51.511Z,17.27
2019-04-14T15:45:57.368Z,20.17
2019-04-14T15:48:53.853Z,17.65
2019-04-14T15:51:49.868Z,16.60
2019-04-14T15:54:45.238Z,23.27
2019-04-14T15:57:50.327Z,17.05
2019-04-14T16:01:01.037Z,17.00
2019-04-14T16:04:04.403Z,14.93
2019-04-14T16:10:39.261Z,17.48
2019-04-14T16:13:41.013Z,22.32
2019-04-14T16:16:55.451Z,18.77
2019-04-14T16:20:02.042Z,18.12
2019-04-14T16:23:01.490Z,24.23
2019-04-14T16:26:07.595Z,17.35
2019-04-14T16:29:08.074Z,19.32
2019-04-14T16:32:30.832Z,19.65
2019-04-14T16:35:36.737Z,19.30
2019-04-14T16:38:38.193Z,16.65
2019-04-14T16:41:34.081Z,17.62
2019-04-14T16:47:36.520Z,18.98
2019-04-14T16:50:29.650Z,19.67
2019-04-14T16:57:03.087Z,17.70
2019-04-14T16:59:57.513Z,20.27
2019-04-14T17:02:52.268Z,20.45
2019-04-14T17:05:59.409Z,21.90
2019-04-14T17:08:54.266Z,24.20
2019-04-14T17:11:46.606Z,24.75
2019-04-14T17:14:57.009Z,17.87
2019-04-14T17:18:18.230Z,24.67
2019-04-14T17:21:24.074Z,13.18
2019-04-14T17:24:29.963Z,14.95
2019-04-14T17:28:40.834Z,14.43
2019-04-14T17:35:19.669Z,23.50
2019-04-14T17:38:32.191Z,17.90
2019-04-14T17:41:53.660Z,19.65
2019-04-14T17:45:14.350Z,19.75
2019-04-14T17:48:25.338Z,15.65
2019-04-14T17:51:29.407Z,18.55
2019-04-14T17:54:36.530Z,23.73
2019-04-14T17:58:01.853Z,20.48
2019-04-14T18:04:25.071Z,15.88
2019-04-14T18:07:39.891Z,16.85
2019-04-14T18:10:51.114Z,20.88
2019-04-14T18:14:09.003Z,15.23
2019-04-14T18:17:34.060Z,11.12
2019-04-14T18:20:33.259Z,18.10
2019-04-14T18:23:38.040Z,20.85
2019-04-14T18:26:32.980Z,14.03
2019-04-14T18:33:13.972Z,15.98
2019-04-14T18:36:14.061Z,20.92
2019-04-14T18:39:31.439Z,21.82
2019-04-14T18:42:50.604Z,18.25
2019-04-14T18:45:55.182Z,19.98
2019-04-14T18:48:57.213Z,15.18
2019-04-14T18:52:17.414Z,15.80
2019-04-14T18:55:21.968Z,23.42
2019-04-14T18:58:28.096Z,11.97
2019-04-14T19:01:33.076Z,14.87
2019-04-14T19:07:38.290Z,15.32
2019-04-14T19:13:48.426Z,27.48
2019-04-14T19:16:40.431Z,11.78
2019-04-14T19:23:12.108Z,23.38
2019-04-14T19:26:05.696Z,9.95
2019-04-14T19:28:56.336Z,11.63
2019-04-14T19:31:58.723Z,23.70
2019-04-14T19:34:54.067Z,18.67
2019-04-14T19:38:01.710Z,27.70
2019-04-14T19:40:55.421Z,14.80
2019-04-14T19:43:50.638Z,23.60
2019-04-14T19:46:45.741Z,16.02
2019-04-14T19:49:57.502Z,15.13
2019-04-14T19:52:52.588Z,22.27
2019-04-14T19:55:46.215Z,13.05
2019-04-14T19:58:51.000Z,24.87
2019-04-14T20:01:51.983Z,25.52
2019-04-14T20:04:57.838Z,25.27
2019-04-14T20:07:51.981Z,27.80
2019-04-14T20:10:47.533Z,20.60
2019-04-14T20:13:57.546Z,28.05
2019-04-14T20:17:13.583Z,22.82
2019-04-14T20:20:23.534Z,26.97
2019-04-14T20:23:31.987Z,14.55
2019-04-14T20:33:02.085Z,23.73
2019-04-14T20:35:55.886Z,15.63
2019-04-14T20:38:51.501Z,30.08
2019-04-14T20:45:05.855Z,23.75
2019-04-14T20:48:04.517Z,30.43
2019-04-14T20:54:21.070Z,18.80
2019-04-14T20:57:25.870Z,21.10
2019-04-14T21:10:25.906Z,27.22
2019-04-14T21:13:36.387Z,33.42
2019-04-14T21:16:44.381Z,29.25
2019-04-14T21:23:14.417Z,33.70
2019-04-14T21:26:22.596Z,34.10
2019-04-14T21:33:09.361Z,34.85
2019-04-14T21:36:11.529Z,24.02
2019-04-14T21:39:17.232Z,31.37
2019-04-14T21:42:10.558Z,33.42
2019-04-14T21:45:03.877Z,36.13
2019-04-14T21:48:12.068Z,30.02
2019-04-14T21:51:15.590Z,22.67
2019-04-14T21:54:09.657Z,19.02
2019-04-14T22:03:52.064Z,34.63
2019-04-14T22:07:00.358Z,28.87
2019-04-14T22:10:19.800Z,36.35
2019-04-14T22:16:23.164Z,25.60
2019-04-14T22:19:17.230Z,14.10
2019-04-14T22:22:10.816Z,17.07
2019-04-14T22:25:09.228Z,19.00
2019-04-14T22:28:06.125Z,30.68
2019-04-14T22:34:30.643Z,29.40
2019-04-14T22:40:34.525Z,31.65
2019-04-14T22:43:30.036Z,30.15
2019-04-14T22:46:23.602Z,31.52
2019-04-14T22:49:28.969Z,33.02
2019-04-14T22:52:22.256Z,27.15
2019-04-14T22:55:17.870Z,31.68
2019-04-14T22:58:23.472Z,33.70
2019-04-14T23:01:33.678Z,29.42
2019-04-14T23:04:51.586Z,37.88
2019-04-14T23:08:17.669Z,30.77
2019-04-14T23:11:35.281Z,23.10
2019-04-14T23:14:48.563Z,31.82
2019-04-14T23:17:53.221Z,29.25
2019-04-14T23:21:15.514Z,35.73
2019-04-14T23:24:21.489Z,33.33
2019-04-14T23:27:28.644Z,32.95
2019-04-14T23:30:22.302Z,32.23
2019-04-14T23:33:17.303Z,27.48
2019-04-14T23:36:21.918Z,31.97
2019-04-14T23:39:25.165Z,28.38
2019-04-14T23:45:37.647Z,32.70
2019-04-14T23:48:39.827Z,32.20
2019-04-14T23:51:35.777Z,34.73
2019-04-14T23:54:29.416Z,31.85
2019-04-14T23:57:23.694Z,29.72
